Time;durP1;ratioP1;P1;durP2;ratioP2;P2;SDS_P1;SDS_P2;PMS_P1;PMS_P2;Temp;Humidity;BMP_temperature;BMP_pressure;BME280_temperature;BME280_humidity;BME280_pressure;Samples;Min_cycle;Max_cycle;Signal;HPM_P1;HPM_P2
2023/03/30 00:03:06;;;;;;;6.03;1.98;;;17.40;79.20;;;;;;10053776;28;20063;-72
2023/03/30 00:07:57;;;;;;;2.97;2.00;;;17.40;79.30;;;;;;10067530;28;20072;-72
2023/03/30 00:12:52;;;;;;;10.40;2.80;;;17.50;79.40;;;;;;10068744;28;20037;-75
2023/03/30 00:17:44;;;;;;;5.68;2.67;;;17.50;79.70;;;;;;10061288;28;20064;-74
2023/03/30 00:22:35;;;;;;;5.90;2.25;;;17.40;80.20;;;;;;10060606;28;20038;-73
2023/03/30 00:27:26;;;;;;;7.50;1.80;;;17.40;80.50;;;;;;10061667;28;20045;-72
2023/03/30 00:32:16;;;;;;;4.47;2.05;;;17.40;80.70;;;;;;10064192;28;20061;-71
2023/03/30 00:37:08;;;;;;;6.53;2.17;;;17.40;81.00;;;;;;10063281;28;20026;-69
2023/03/30 00:41:58;;;;;;;7.95;2.00;;;17.30;81.50;;;;;;10061229;28;20049;-70
2023/03/30 00:46:49;;;;;;;6.97;2.45;;;17.20;82.10;;;;;;10069834;28;20595;-72
2023/03/30 00:51:41;;;;;;;6.18;1.73;;;17.10;82.70;;;;;;10067159;28;20029;-69
2023/03/30 00:56:33;;;;;;;4.13;1.83;;;17.00;83.00;;;;;;10066439;28;20030;-70
2023/03/30 01:01:27;;;;;;;5.47;2.35;;;17.00;83.50;;;;;;10065979;28;20037;-70
2023/03/30 01:06:23;;;;;;;5.40;1.65;;;17.00;83.80;;;;;;10068582;28;20033;-73
2023/03/30 01:11:13;;;;;;;7.32;2.17;;;17.00;84.00;;;;;;10084008;28;20534;-70
2023/03/30 01:16:34;;;;;;;7.53;2.35;;;16.90;84.20;;;;;;10069496;28;20098;-71
2023/03/30 01:22:03;;;;;;;9.05;2.40;;;17.00;84.70;;;;;;10071410;28;20037;-71
2023/03/30 01:27:29;;;;;;;5.25;2.42;;;17.00;85.00;;;;;;10066706;28;20114;-71
2023/03/30 01:33:05;;;;;;;2.97;2.03;;;17.00;85.30;;;;;;10016697;28;20052;-74
2023/03/30 01:38:26;;;;;;;5.55;1.90;;;17.00;85.30;;;;;;10070282;28;20033;-72
2023/03/30 01:43:25;;;;;;;8.30;2.20;;;16.90;85.80;;;;;;10070118;28;20052;-72
2023/03/30 01:48:25;;;;;;;4.45;2.20;;;16.90;86.20;;;;;;10071600;28;20520;-73
2023/03/30 01:53:27;;;;;;;5.57;2.08;;;16.90;86.70;;;;;;10068002;28;20092;-73
2023/03/30 01:58:43;;;;;;;9.45;3.08;;;17.00;87.20;;;;;;10054421;28;20025;-72
2023/03/30 02:03:38;;;;;;;4.65;1.83;;;17.00;88.00;;;;;;10065812;28;20073;-73
2023/03/30 02:08:32;;;;;;;7.05;2.40;;;17.00;88.30;;;;;;10074298;28;20025;-72
2023/03/30 02:13:26;;;;;;;8.68;3.10;;;17.00;88.70;;;;;;10060970;28;20038;-72
2023/03/30 02:18:18;;;;;;;5.35;2.30;;;16.90;89.40;;;;;;10065266;28;20035;-74
2023/03/30 02:23:10;;;;;;;5.65;2.60;;;16.90;90.00;;;;;;10063170;28;20494;-74
2023/03/30 02:28:01;;;;;;;6.20;2.10;;;16.80;90.30;;;;;;10063204;28;20041;-74
2023/03/30 02:32:54;;;;;;;4.53;2.10;;;16.70;90.60;;;;;;10061955;28;20509;-73
2023/03/30 02:37:54;;;;;;;4.50;1.75;;;16.70;90.80;;;;;;10063087;28;20025;-73
2023/03/30 02:43:04;;;;;;;9.32;2.28;;;16.60;91.10;;;;;;10063559;28;20076;-69
2023/03/30 02:48:08;;;;;;;5.68;1.75;;;16.50;91.50;;;;;;10057712;28;20029;-68
2023/03/30 02:53:22;;;;;;;4.10;1.55;;;16.50;91.60;;;;;;10063186;28;20476;-70
2023/03/30 02:58:30;;;;;;;10.85;2.50;;;16.50;91.70;;;;;;10061588;28;20029;-71
2023/03/30 03:03:27;;;;;;;10.45;2.30;;;16.50;92.00;;;;;;10061080;28;20073;-73
2023/03/30 03:08:18;;;;;;;5.97;1.85;;;16.40;92.20;;;;;;10073584;28;20053;-72
2023/03/30 03:13:09;;;;;;;9.85;2.88;;;16.40;92.40;;;;;;10066586;28;20087;-72
2023/03/30 03:18:00;;;;;;;8.50;1.90;;;16.40;92.60;;;;;;10060695;28;20428;-73
2023/03/30 03:22:51;;;;;;;8.32;2.00;;;16.30;92.80;;;;;;10061189;28;20084;-72
2023/03/30 03:27:41;;;;;;;6.22;1.63;;;16.40;93.00;;;;;;10060330;28;20053;-72
2023/03/30 03:32:32;;;;;;;9.75;2.33;;;16.40;93.00;;;;;;10057543;28;20447;-73
2023/03/30 03:37:22;;;;;;;10.25;2.13;;;16.40;93.20;;;;;;10071484;28;20071;-72
2023/03/30 03:42:13;;;;;;;8.52;2.42;;;16.40;93.60;;;;;;10059495;28;20090;-72
2023/03/30 03:47:04;;;;;;;5.25;2.33;;;16.40;93.50;;;;;;10062200;28;20060;-72
2023/03/30 03:51:54;;;;;;;5.45;1.80;;;16.30;93.70;;;;;;10060128;28;20037;-73
2023/03/30 03:56:45;;;;;;;5.35;2.03;;;16.40;93.90;;;;;;10060039;28;20018;-74
2023/03/30 04:01:36;;;;;;;9.43;2.58;;;16.30;94.10;;;;;;10062852;28;20460;-73
2023/03/30 04:06:27;;;;;;;8.00;2.58;;;16.30;94.40;;;;;;10069745;28;20017;-72
2023/03/30 04:11:17;;;;;;;7.47;2.28;;;16.10;94.70;;;;;;10083091;28;20025;-69
2023/03/30 04:16:09;;;;;;;6.90;2.50;;;16.10;95.00;;;;;;10064587;28;20026;-70
2023/03/30 04:21:04;;;;;;;20.35;4.20;;;16.10;95.30;;;;;;10059987;28;20055;-71
2023/03/30 04:25:56;;;;;;;3.88;2.40;;;16.10;95.30;;;;;;10075795;28;20042;-69
2023/03/30 04:30:47;;;;;;;10.85;2.40;;;16.00;95.60;;;;;;10076438;28;20284;-69
2023/03/30 04:35:38;;;;;;;8.25;1.90;;;16.10;95.70;;;;;;10077816;28;20288;-69
2023/03/30 04:40:28;;;;;;;4.88;1.85;;;16.20;95.80;;;;;;10074595;28;20099;-71
2023/03/30 04:45:19;;;;;;;8.85;2.75;;;16.10;96.00;;;;;;10088950;28;20144;-69
2023/03/30 04:50:11;;;;;;;11.07;2.53;;;16.20;96.20;;;;;;10076352;28;20044;-69
2023/03/30 04:55:01;;;;;;;9.27;2.45;;;16.10;96.40;;;;;;10077900;28;20156;-70
2023/03/30 04:59:52;;;;;;;11.65;3.00;;;16.00;96.80;;;;;;10078814;28;20400;-70
2023/03/30 05:04:43;;;;;;;11.80;2.67;;;16.00;97.00;;;;;;10069453;28;20195;-73
2023/03/30 05:09:33;;;;;;;5.80;2.63;;;15.70;97.50;;;;;;10084626;28;20076;-71
2023/03/30 05:14:24;;;;;;;8.35;3.20;;;15.60;97.90;;;;;;10074178;28;20033;-72
2023/03/30 05:19:15;;;;;;;13.02;2.50;;;15.70;98.20;;;;;;10070913;28;20085;-73
2023/03/30 05:24:06;;;;;;;8.75;3.15;;;15.60;98.50;;;;;;10076026;28;20506;-74
2023/03/30 05:28:57;;;;;;;5.10;2.15;;;15.70;98.70;;;;;;10071845;28;20052;-75
2023/03/30 05:33:47;;;;;;;15.70;3.70;;;15.80;98.90;;;;;;10070605;28;20056;-74
2023/03/30 05:38:38;;;;;;;11.35;2.63;;;15.90;99.10;;;;;;10071333;28;20044;-72
2023/03/30 05:43:30;;;;;;;10.20;2.70;;;16.00;99.20;;;;;;10073626;28;20087;-73
2023/03/30 05:48:21;;;;;;;6.38;2.25;;;16.10;99.20;;;;;;10075688;28;20540;-72
2023/03/30 05:53:12;;;;;;;7.15;2.58;;;16.20;99.20;;;;;;10075728;28;20026;-73
2023/03/30 05:58:02;;;;;;;8.60;2.17;;;16.20;99.20;;;;;;10074586;28;20029;-72
2023/03/30 06:02:53;;;;;;;9.48;1.92;;;16.20;99.20;;;;;;10077096;28;20108;-75
2023/03/30 06:07:44;;;;;;;6.65;2.28;;;16.20;99.20;;;;;;10066917;28;20096;-74
2023/03/30 06:12:35;;;;;;;4.75;2.65;;;16.20;99.20;;;;;;10072827;28;20097;-73
2023/03/30 06:17:26;;;;;;;5.15;1.67;;;16.10;99.40;;;;;;10071705;28;20140;-73
2023/03/30 06:22:16;;;;;;;3.97;1.80;;;15.80;99.30;;;;;;10071061;28;20041;-71
2023/03/30 06:27:07;;;;;;;6.47;2.83;;;15.30;99.80;;;;;;10065470;28;20140;-74
2023/03/30 06:31:57;;;;;;;7.20;2.03;;;15.20;99.90;;;;;;10063391;28;20025;-73
2023/03/30 06:36:49;;;;;;;3.58;2.17;;;15.20;99.90;;;;;;10055725;28;20025;-75
2023/03/30 06:41:41;;;;;;;8.70;1.85;;;15.30;99.90;;;;;;10059386;28;20488;-72
2023/03/30 06:46:32;;;;;;;10.57;2.20;;;15.30;99.90;;;;;;10051799;28;20392;-73
2023/03/30 06:51:22;;;;;;;6.65;2.53;;;15.50;99.90;;;;;;10042390;28;20445;-70
2023/03/30 06:56:14;;;;;;;4.10;1.90;;;15.60;99.90;;;;;;10046236;28;20021;-71
2023/03/30 07:01:13;;;;;;;6.32;1.90;;;15.60;99.90;;;;;;10049198;28;20480;-72
2023/03/30 07:06:04;;;;;;;7.80;2.75;;;15.50;99.90;;;;;;10047535;28;20556;-72
2023/03/30 07:10:55;;;;;;;7.53;2.22;;;15.40;99.90;;;;;;10053200;28;20048;-73
2023/03/30 07:15:46;;;;;;;3.42;2.00;;;15.30;99.90;;;;;;10045567;28;20021;-72
2023/03/30 07:20:37;;;;;;;6.05;2.13;;;15.30;99.90;;;;;;10051622;28;20053;-66
2023/03/30 07:25:28;;;;;;;12.52;3.45;;;15.30;99.90;;;;;;10062863;28;20037;-73
2023/03/30 07:30:21;;;;;;;6.07;2.92;;;15.40;99.90;;;;;;10066366;28;20061;-68
2023/03/30 07:35:12;;;;;;;7.43;2.53;;;15.40;99.90;;;;;;10062195;28;20109;-70
2023/03/30 07:40:06;;;;;;;10.93;2.45;;;15.30;99.90;;;;;;10049238;28;20544;-69
2023/03/30 07:44:56;;;;;;;7.18;2.47;;;15.30;99.90;;;;;;10053309;28;20009;-69
2023/03/30 07:49:47;;;;;;;4.05;2.50;;;15.20;99.90;;;;;;10057881;28;20163;-70
2023/03/30 07:54:38;;;;;;;10.00;2.65;;;15.20;99.90;;;;;;10050359;28;20044;-69
2023/03/30 07:59:29;;;;;;;12.23;5.93;;;15.20;99.90;;;;;;10062182;28;20026;-74
2023/03/30 08:04:20;;;;;;;6.43;3.30;;;15.10;99.90;;;;;;10063913;28;20195;-70
2023/03/30 08:09:11;;;;;;;7.03;3.25;;;15.20;99.90;;;;;;10084939;28;20026;-71
2023/03/30 08:14:03;;;;;;;9.65;3.67;;;15.40;99.90;;;;;;10058114;28;20037;-73
2023/03/30 08:18:54;;;;;;;6.88;2.63;;;15.40;99.90;;;;;;10060427;28;20496;-71
2023/03/30 08:23:44;;;;;;;6.30;2.80;;;15.40;99.90;;;;;;10066636;28;20033;-70
2023/03/30 08:28:35;;;;;;;8.73;4.43;;;15.50;99.90;;;;;;10057992;28;20594;-70
2023/03/30 08:33:26;;;;;;;5.43;2.88;;;15.40;99.90;;;;;;10070799;28;20076;-69
2023/03/30 08:38:17;;;;;;;10.73;3.00;;;15.40;99.90;;;;;;10074780;28;20116;-69
2023/03/30 08:43:11;;;;;;;8.57;2.85;;;15.40;99.90;;;;;;10071821;28;20038;-69
2023/03/30 08:48:02;;;;;;;8.68;2.33;;;15.30;99.90;;;;;;10065394;28;20468;-67
2023/03/30 08:52:52;;;;;;;5.75;2.80;;;15.30;99.90;;;;;;10067378;28;20036;-68
2023/03/30 08:57:57;;;;;;;6.50;2.90;;;15.30;99.90;;;;;;10063903;28;20026;-67
2023/03/30 09:02:52;;;;;;;4.65;2.80;;;15.20;99.90;;;;;;10059648;28;20097;-70
2023/03/30 09:07:51;;;;;;;6.30;3.00;;;15.30;99.90;;;;;;10058675;28;20033;-68
2023/03/30 09:12:49;;;;;;;5.53;2.95;;;15.30;99.90;;;;;;10056661;28;20026;-67
2023/03/30 09:17:52;;;;;;;5.32;2.72;;;15.30;99.90;;;;;;10050306;28;20079;-67
2023/03/30 09:22:44;;;;;;;7.53;2.85;;;15.40;99.90;;;;;;10056073;28;20033;-68
2023/03/30 09:28:01;;;;;;;6.60;3.33;;;15.40;99.90;;;;;;10022141;28;1137782;-68
2023/03/30 09:32:59;;;;;;;5.15;2.60;;;15.50;99.90;;;;;;10055381;28;20374;-69
2023/03/30 09:37:50;;;;;;;12.70;2.90;;;15.60;99.90;;;;;;10055714;28;20024;-70
2023/03/30 09:43:12;;;;;;;4.68;2.55;;;15.60;99.90;;;;;;10051234;28;20370;-68
2023/03/30 09:48:07;;;;;;;7.80;3.08;;;15.50;99.90;;;;;;10046360;28;20038;-70
2023/03/30 09:53:02;;;;;;;7.60;4.13;;;15.40;99.90;;;;;;10054954;28;20381;-68
2023/03/30 09:58:08;;;;;;;6.45;3.00;;;15.40;99.90;;;;;;10059110;28;20043;-72
2023/03/30 10:03:05;;;;;;;8.52;3.83;;;15.60;99.90;;;;;;10048234;28;20041;-71
2023/03/30 10:08:01;;;;;;;3.63;2.70;;;15.60;99.90;;;;;;10059167;28;20108;-66
2023/03/30 10:13:12;;;;;;;7.53;2.60;;;15.70;99.90;;;;;;10044936;28;20025;-70
2023/03/30 10:18:29;;;;;;;6.88;2.90;;;15.70;99.90;;;;;;10062130;28;20498;-65
2023/03/30 10:23:23;;;;;;;5.28;2.80;;;15.70;99.90;;;;;;10058767;28;20468;-68
2023/03/30 10:28:20;;;;;;;9.25;3.60;;;15.80;99.90;;;;;;10057216;28;20056;-67
2023/03/30 10:33:11;;;;;;;6.53;2.72;;;16.00;99.90;;;;;;10048862;28;20048;-64
2023/03/30 10:38:05;;;;;;;5.93;3.33;;;15.90;99.90;;;;;;10048503;28;20022;-64
2023/03/30 10:42:57;;;;;;;6.47;2.85;;;15.90;99.90;;;;;;10041736;28;20124;-63
2023/03/30 10:47:54;;;;;;;5.43;3.53;;;16.00;99.90;;;;;;10055529;28;20109;-67
2023/03/30 10:53:06;;;;;;;10.40;2.80;;;16.20;99.90;;;;;;10052490;28;20060;-67
2023/03/30 10:58:27;;;;;;;8.45;2.95;;;16.40;99.90;;;;;;10066713;28;20021;-68
2023/03/30 11:03:30;;;;;;;4.85;2.72;;;16.70;99.90;;;;;;10060996;28;20412;-70
2023/03/30 11:08:27;;;;;;;7.88;4.03;;;17.00;99.90;;;;;;10067671;28;20021;-70
2023/03/30 11:13:26;;;;;;;7.82;3.58;;;17.00;99.90;;;;;;10067314;28;20026;-71
2023/03/30 11:18:42;;;;;;;6.65;2.40;;;17.00;99.90;;;;;;10068971;28;20038;-72
2023/03/30 11:23:38;;;;;;;6.30;2.03;;;17.00;99.90;;;;;;10063819;28;20030;-73
2023/03/30 11:29:04;;;;;;;4.80;2.75;;;17.00;99.90;;;;;;10058877;28;20643;-73
2023/03/30 11:34:16;;;;;;;5.22;2.53;;;17.20;99.90;;;;;;10063133;28;20030;-71
2023/03/30 11:39:14;;;;;;;4.18;2.50;;;17.30;99.90;;;;;;10049267;28;20041;-75
2023/03/30 11:44:07;;;;;;;7.32;3.20;;;17.70;99.90;;;;;;10051873;28;20029;-77
2023/03/30 11:49:13;;;;;;;4.65;2.28;;;17.60;99.90;;;;;;10046950;28;20017;-73
2023/03/30 11:54:09;;;;;;;5.72;2.47;;;17.80;99.90;;;;;;10042821;28;20124;-76
2023/03/30 11:59:05;;;;;;;3.15;1.40;;;17.60;99.90;;;;;;10048070;28;20025;-74
2023/03/30 12:04:08;;;;;;;3.08;1.67;;;17.40;99.90;;;;;;10056431;28;20041;-73
2023/03/30 12:09:13;;;;;;;8.45;2.08;;;17.30;99.90;;;;;;10055875;28;20072;-63
2023/03/30 12:14:31;;;;;;;5.32;1.88;;;17.30;99.90;;;;;;10052490;28;20032;-63
2023/03/30 12:19:33;;;;;;;5.28;1.80;;;17.30;99.90;;;;;;10058040;28;20396;-63
2023/03/30 12:24:35;;;;;;;5.22;1.52;;;17.60;99.90;;;;;;10052103;28;20026;-63
2023/03/30 12:29:43;;;;;;;4.10;1.60;;;18.20;99.90;;;;;;10056917;28;20045;-64
2023/03/30 12:34:36;;;;;;;3.35;1.77;;;18.40;99.90;;;;;;10043206;28;20041;-65
2023/03/30 12:39:43;;;;;;;7.57;1.30;;;18.40;99.90;;;;;;10042621;28;20447;-71
2023/03/30 12:44:37;;;;;;;2.50;1.42;;;18.20;99.90;;;;;;10046516;28;20408;-72
2023/03/30 12:49:55;;;;;;;2.53;1.70;;;18.70;99.90;;;;;;10051098;28;20478;-72
2023/03/30 12:55:22;;;;;;;4.82;1.38;;;19.30;99.50;;;;;;10064720;28;20030;-74
2023/03/30 13:00:54;;;;;;;4.32;1.25;;;19.80;98.80;;;;;;10059413;28;20033;-72
2023/03/30 13:05:50;;;;;;;6.70;1.52;;;20.20;98.80;;;;;;10016952;28;20034;-77
2023/03/30 13:10:42;;;;;;;3.80;1.40;;;19.30;98.60;;;;;;10062746;28;20123;-71
2023/03/30 13:15:38;;;;;;;3.97;1.20;;;18.70;98.70;;;;;;10063661;28;20025;-69
2023/03/30 13:20:31;;;;;;;3.67;1.13;;;18.30;98.40;;;;;;10054462;28;20096;-69
2023/03/30 13:25:38;;;;;;;4.07;1.27;;;18.10;98.00;;;;;;10059025;28;20073;-69
2023/03/30 13:30:29;;;;;;;3.88;1.00;;;17.90;97.40;;;;;;10063126;28;20029;-68
2023/03/30 13:35:45;;;;;;;5.28;0.90;;;18.00;97.20;;;;;;10062766;28;20075;-68
2023/03/30 13:40:47;;;;;;;1.92;1.25;;;18.40;96.90;;;;;;10050623;28;20155;-70
2023/03/30 13:45:53;;;;;;;3.45;1.13;;;18.80;96.50;;;;;;10061345;28;20040;-65
2023/03/30 13:50:49;;;;;;;1.83;1.02;;;20.90;95.50;;;;;;10053914;28;20124;-65
2023/03/30 13:55:58;;;;;;;1.88;1.15;;;21.20;95.70;;;;;;10054310;28;20022;-73
2023/03/30 14:01:00;;;;;;;2.75;1.50;;;21.80;94.50;;;;;;10049121;28;20026;-71
2023/03/30 14:05:51;;;;;;;4.82;1.10;;;19.60;95.70;;;;;;10054623;28;20079;-70
2023/03/30 14:10:46;;;;;;;2.10;1.30;;;18.40;96.20;;;;;;10061517;28;20106;-73
2023/03/30 14:15:38;;;;;;;2.47;1.15;;;17.90;96.20;;;;;;10059744;28;20488;-73
2023/03/30 14:20:46;;;;;;;1.95;1.02;;;17.50;96.10;;;;;;10060321;28;20037;-74
2023/03/30 14:25:40;;;;;;;1.55;0.65;;;17.20;95.90;;;;;;10068935;28;20196;-75
2023/03/30 14:30:30;;;;;;;2.95;0.73;;;16.90;96.00;;;;;;10062536;28;20376;-72
2023/03/30 14:35:25;;;;;;;2.08;1.00;;;16.30;95.90;;;;;;10061600;28;20534;-75
2023/03/30 14:40:16;;;;;;;2.00;0.80;;;15.90;97.00;;;;;;10048195;28;20044;-76
2023/03/30 14:45:08;;;;;;;2.55;1.17;;;15.90;97.20;;;;;;10049678;28;20029;-71
2023/03/30 14:50:02;;;;;;;2.63;0.82;;;16.00;97.50;;;;;;10060758;28;20060;-68
2023/03/30 14:54:54;;;;;;;2.78;1.15;;;16.80;97.70;;;;;;10053427;28;20506;-71
2023/03/30 14:59:59;;;;;;;2.67;1.00;;;16.80;97.80;;;;;;10043496;28;20457;-71
2023/03/30 15:04:51;;;;;;;2.15;1.10;;;16.70;98.40;;;;;;10056309;28;20021;-69
2023/03/30 15:09:45;;;;;;;2.75;0.95;;;19.30;97.80;;;;;;10058541;28;20042;-71
2023/03/30 15:14:38;;;;;;;1.42;0.98;;;22.80;95.80;;;;;;10046243;28;20029;-72
2023/03/30 15:19:32;;;;;;;2.63;1.03;;;24.00;94.70;;;;;;10055071;28;20110;-70
2023/03/30 15:24:27;;;;;;;2.03;1.00;;;24.10;94.80;;;;;;10044961;28;20400;-71
2023/03/30 15:29:19;;;;;;;5.03;1.48;;;22.00;95.70;;;;;;10046053;28;20046;-70
2023/03/30 15:34:15;;;;;;;3.85;1.30;;;22.70;95.50;;;;;;10044070;28;20029;-70
2023/03/30 15:39:19;;;;;;;3.42;0.85;;;19.70;96.10;;;;;;10042434;28;20534;-69
2023/03/30 15:44:15;;;;;;;5.15;0.98;;;18.40;96.70;;;;;;10044929;28;20029;-73
2023/03/30 15:49:09;;;;;;;2.25;1.00;;;18.00;96.60;;;;;;10043042;28;20049;-66
2023/03/30 15:54:20;;;;;;;3.20;1.02;;;20.80;95.40;;;;;;10048925;28;20129;-70
2023/03/30 15:59:20;;;;;;;3.42;1.20;;;24.30;92.30;;;;;;10057928;28;20045;-67
2023/03/30 16:04:14;;;;;;;3.40;1.35;;;23.00;93.20;;;;;;10057038;28;20044;-74
2023/03/30 16:09:05;;;;;;;3.60;1.83;;;26.00;91.30;;;;;;10070544;28;20030;-71
2023/03/30 16:13:56;;;;;;;2.30;1.00;;;27.30;89.70;;;;;;10043038;28;20069;-73
2023/03/30 16:18:47;;;;;;;3.00;1.38;;;27.60;88.40;;;;;;10044454;28;20033;-68
2023/03/30 16:23:37;;;;;;;6.30;1.75;;;26.90;87.90;;;;;;10051258;28;20029;-66
2023/03/30 16:28:29;;;;;;;2.85;1.35;;;26.90;86.90;;;;;;10052709;28;20042;-62
2023/03/30 16:33:19;;;;;;;2.08;1.00;;;28.40;85.00;;;;;;10051434;28;20041;-70
2023/03/30 16:38:13;;;;;;;3.00;1.50;;;25.20;86.30;;;;;;10070027;28;20044;-66
2023/03/30 16:43:04;;;;;;;2.50;1.37;;;23.30;87.60;;;;;;10066344;28;20033;-67
2023/03/30 16:47:55;;;;;;;2.33;1.00;;;21.00;90.00;;;;;;10064340;28;20260;-71
2023/03/30 16:52:46;;;;;;;3.40;1.30;;;20.10;90.40;;;;;;10063001;28;20116;-70
2023/03/30 16:57:38;;;;;;;2.35;0.63;;;19.80;89.30;;;;;;10067225;28;20023;-69
2023/03/30 17:02:28;;;;;;;2.25;0.93;;;19.40;89.10;;;;;;10060225;28;20034;-66
2023/03/30 17:07:20;;;;;;;3.80;1.52;;;21.50;86.30;;;;;;10065933;28;20029;-66
2023/03/30 17:12:11;;;;;;;2.47;0.85;;;22.90;83.90;;;;;;10062575;28;20389;-66
2023/03/30 17:17:02;;;;;;;4.03;1.40;;;21.40;84.60;;;;;;10063330;28;20036;-66
2023/03/30 17:21:52;;;;;;;2.45;1.40;;;19.80;86.50;;;;;;10057864;28;20069;-67
2023/03/30 17:26:43;;;;;;;3.83;0.77;;;18.70;87.30;;;;;;10068543;28;20386;-64
2023/03/30 17:31:34;;;;;;;4.38;1.00;;;18.30;87.50;;;;;;10067057;28;20041;-62
2023/03/30 17:36:27;;;;;;;4.15;1.00;;;18.10;87.50;;;;;;10063189;28;20116;-64
2023/03/30 17:41:18;;;;;;;4.90;2.10;;;17.90;87.90;;;;;;10062145;28;20053;-66
2023/03/30 17:46:14;;;;;;;3.50;1.73;;;17.80;88.20;;;;;;10059239;28;20108;-69
2023/03/30 17:51:06;;;;;;;4.80;1.42;;;17.70;88.40;;;;;;10059542;28;20029;-67
2023/03/30 17:55:57;;;;;;;5.03;1.55;;;17.50;88.90;;;;;;10052437;28;20030;-67
2023/03/30 18:00:48;;;;;;;4.68;1.63;;;17.30;89.10;;;;;;10049353;28;20504;-67
2023/03/30 18:05:39;;;;;;;2.97;1.50;;;17.20;89.60;;;;;;10050732;28;20100;-68
2023/03/30 18:10:35;;;;;;;4.78;1.95;;;17.20;89.70;;;;;;10052077;28;20056;-69
2023/03/30 18:15:26;;;;;;;4.32;1.88;;;17.20;89.80;;;;;;10064079;28;20041;-69
2023/03/30 18:20:28;;;;;;;6.30;2.15;;;17.20;90.00;;;;;;10051349;28;20373;-66
2023/03/30 18:25:19;;;;;;;3.40;1.70;;;17.20;90.20;;;;;;10059444;28;20538;-66
2023/03/30 18:30:36;;;;;;;5.15;1.77;;;17.20;90.30;;;;;;10063967;28;20029;-68
2023/03/30 18:35:29;;;;;;;6.07;2.55;;;17.30;90.40;;;;;;10059108;28;20033;-69
2023/03/30 18:40:35;;;;;;;4.35;2.08;;;17.30;90.40;;;;;;10061372;28;20492;-71
2023/03/30 18:45:29;;;;;;;4.90;1.40;;;17.30;90.40;;;;;;10054696;28;20476;-71
2023/03/30 18:50:28;;;;;;;3.63;1.45;;;17.30;90.50;;;;;;10058721;28;20476;-69
2023/03/30 18:55:19;;;;;;;5.18;1.67;;;17.20;90.50;;;;;;10064583;28;20496;-70
2023/03/30 19:00:18;;;;;;;4.88;2.15;;;17.10;90.70;;;;;;10065625;28;20403;-70
2023/03/30 19:05:10;;;;;;;3.90;1.77;;;17.10;90.80;;;;;;10048087;28;20029;-66
2023/03/30 19:10:01;;;;;;;4.97;1.55;;;16.90;91.00;;;;;;10057563;28;20545;-72
2023/03/30 19:14:52;;;;;;;4.90;1.90;;;16.90;91.10;;;;;;10057590;28;20116;-71
2023/03/30 19:19:42;;;;;;;7.00;2.35;;;16.80;91.20;;;;;;10056114;28;20503;-65
2023/03/30 19:24:34;;;;;;;5.05;2.17;;;16.90;91.30;;;;;;10040207;28;20026;-65
2023/03/30 19:29:25;;;;;;;5.45;1.52;;;16.80;91.30;;;;;;10040292;28;20046;-62
2023/03/30 19:34:16;;;;;;;6.20;1.48;;;16.70;91.40;;;;;;10050201;28;20076;-64
2023/03/30 19:39:06;;;;;;;5.40;1.38;;;16.60;91.40;;;;;;10052718;28;20033;-59
2023/03/30 19:43:57;;;;;;;4.05;1.50;;;16.60;91.60;;;;;;10051101;28;20170;-59
2023/03/30 19:48:48;;;;;;;3.80;1.27;;;16.50;91.60;;;;;;10054421;28;20061;-61
2023/03/30 19:53:39;;;;;;;2.33;0.93;;;16.50;91.70;;;;;;10056406;28;20033;-63
2023/03/30 19:58:29;;;;;;;1.77;1.13;;;16.40;91.80;;;;;;10055651;28;20022;-59
2023/03/30 20:03:20;;;;;;;1.98;0.93;;;16.30;91.90;;;;;;10053053;28;20281;-64
2023/03/30 20:08:10;;;;;;;2.45;0.85;;;16.20;91.90;;;;;;10048277;28;20376;-63
2023/03/30 20:13:01;;;;;;;1.20;0.90;;;16.20;91.90;;;;;;10065165;28;20361;-63
2023/03/30 20:17:55;;;;;;;3.38;0.80;;;16.10;92.00;;;;;;10060770;28;20265;-64
2023/03/30 20:22:45;;;;;;;1.98;1.08;;;16.20;91.90;;;;;;10052164;28;20041;-62
2023/03/30 20:27:36;;;;;;;5.88;0.95;;;16.10;91.90;;;;;;10058432;28;20538;-61
2023/03/30 20:32:27;;;;;;;4.43;1.20;;;16.10;92.00;;;;;;10054960;28;20443;-62
2023/03/30 20:37:18;;;;;;;2.97;1.10;;;16.20;91.90;;;;;;10061426;28;20411;-64
2023/03/30 20:42:09;;;;;;;3.17;0.88;;;16.10;91.90;;;;;;10063201;28;20297;-65
2023/03/30 20:47:02;;;;;;;4.70;1.35;;;16.10;91.90;;;;;;10052553;28;20708;-63
2023/03/30 20:51:53;;;;;;;2.95;1.73;;;16.00;92.00;;;;;;10052046;28;20095;-61
2023/03/30 20:56:44;;;;;;;3.72;1.63;;;16.00;92.00;;;;;;10057303;28;20024;-61
2023/03/30 21:01:37;;;;;;;3.85;1.08;;;15.90;91.90;;;;;;10073084;28;20129;-60
2023/03/30 21:06:29;;;;;;;3.10;1.13;;;15.90;92.00;;;;;;10076401;28;20038;-60
2023/03/30 21:11:22;;;;;;;1.83;0.82;;;15.90;92.10;;;;;;10071812;28;20115;-58
2023/03/30 21:16:13;;;;;;;3.88;1.08;;;15.90;92.00;;;;;;10075323;28;20496;-59
2023/03/30 21:21:04;;;;;;;2.00;1.10;;;16.00;92.10;;;;;;10080633;28;20044;-60
2023/03/30 21:25:58;;;;;;;1.60;0.68;;;16.00;92.10;;;;;;10072860;28;20183;-61
2023/03/30 21:30:49;;;;;;;4.07;1.10;;;15.90;92.10;;;;;;10059110;28;20431;-61
2023/03/30 21:35:40;;;;;;;1.60;0.73;;;15.90;92.20;;;;;;10061932;28;20083;-60
2023/03/30 21:40:30;;;;;;;3.00;0.90;;;16.00;92.20;;;;;;10064583;28;20029;-61
2023/03/30 21:45:21;;;;;;;2.92;1.40;;;15.90;92.30;;;;;;10062728;28;20518;-61
2023/03/30 21:50:11;;;;;;;2.92;0.85;;;15.90;92.30;;;;;;10063928;28;20036;-60
2023/03/30 21:55:03;;;;;;;2.08;0.70;;;15.90;92.30;;;;;;10064575;28;20090;-61
2023/03/30 21:59:53;;;;;;;1.75;0.98;;;15.90;92.30;;;;;;10061895;28;20377;-61
2023/03/30 22:04:44;;;;;;;1.55;0.73;;;15.90;92.40;;;;;;10063410;28;20029;-61
2023/03/30 22:09:35;;;;;;;4.35;1.90;;;15.90;92.50;;;;;;10063281;28;20056;-61
2023/03/30 22:14:26;;;;;;;5.88;0.88;;;15.80;92.50;;;;;;10063390;28;20025;-62
2023/03/30 22:19:17;;;;;;;5.90;1.38;;;15.80;92.70;;;;;;10071078;28;20029;-61
2023/03/30 22:24:10;;;;;;;2.78;1.13;;;15.70;92.80;;;;;;10067982;28;20136;-62
2023/03/30 22:29:01;;;;;;;1.00;0.60;;;15.60;93.00;;;;;;10080160;28;20473;-62
2023/03/30 22:33:53;;;;;;;4.63;0.93;;;15.70;93.00;;;;;;10061027;28;20044;-63
2023/03/30 22:38:45;;;;;;;1.15;0.70;;;15.70;93.10;;;;;;10076756;28;20059;-62
2023/03/30 22:43:36;;;;;;;1.75;0.80;;;15.70;93.20;;;;;;10063666;28;20037;-63
2023/03/30 22:48:27;;;;;;;2.92;0.90;;;15.70;93.30;;;;;;10064923;28;20072;-62
2023/03/30 22:53:18;;;;;;;4.80;1.10;;;15.60;93.40;;;;;;10074810;28;20087;-62
2023/03/30 22:58:11;;;;;;;2.08;0.95;;;15.60;93.50;;;;;;10066740;28;20030;-62
2023/03/30 23:03:02;;;;;;;2.13;1.17;;;15.60;93.50;;;;;;10069749;28;20127;-62
2023/03/30 23:07:52;;;;;;;4.60;1.27;;;15.60;93.50;;;;;;10066148;28;20499;-62
2023/03/30 23:12:44;;;;;;;4.25;1.40;;;15.50;93.70;;;;;;10076499;28;20037;-62
2023/03/30 23:17:35;;;;;;;2.42;1.17;;;15.50;93.70;;;;;;10061628;28;20034;-62
2023/03/30 23:22:27;;;;;;;2.90;1.52;;;15.50;93.80;;;;;;10067795;28;20040;-62
2023/03/30 23:27:18;;;;;;;1.63;1.08;;;15.50;94.00;;;;;;10074759;28;20575;-62
2023/03/30 23:32:09;;;;;;;3.55;1.00;;;15.40;94.00;;;;;;10066183;28;20116;-62
2023/03/30 23:37:00;;;;;;;5.22;1.95;;;15.40;94.10;;;;;;10069311;28;20029;-63
2023/03/30 23:41:51;;;;;;;3.13;1.27;;;15.40;94.20;;;;;;10070130;28;20157;-62
2023/03/30 23:46:45;;;;;;;6.25;1.33;;;15.40;94.30;;;;;;10064315;28;20447;-62
2023/03/30 23:51:36;;;;;;;7.45;1.60;;;15.50;94.20;;;;;;10052140;28;20158;-63
2023/03/30 23:56:28;;;;;;;4.65;1.73;;;15.40;94.30;;;;;;10037682;28;20112;-62
